Wilson Norfolk — 9HA2466 — position and weather

sailwx.info

Track history (hours):
 
Tides and Currents Weather Stations Pressure Air Temp Water Temp Dewpoint Dewpoint Depression Visibility Wind Speed Wind Dir Waves Ship Positions

Wilson Norfolk

Last reported at 2014-Sep-23 01:33 UTC. Time now 2014-Sep-23 02:20 UTC.
Position N 51°57' E 003°44'.

Length 123 m; draft 7.6 m.

Type: Cargo ship. MMSI: 248678000.

Date/timePositionNaut miles runAvg speedWind from/ knotsBaromVisibWave heightAir tempDewpointWater temp
2014-Sep-23 01:33N 51°57' E 003°44'2 1.6
2014-Sep-23 00:33N 51°56' E 003°43'0 0.1
2014-Sep-22 23:09N 51°56' E 003°43'0 0.0
2014-Sep-22 21:09N 51°56' E 003°43'0 0.0
2014-Sep-22 17:06N 51°56' E 003°43'0 0.1
2014-Sep-22 16:30N 51°56' E 003°43'7 6.6
2014-Sep-22 15:27N 51°56' E 003°32'1111.5
2014-Sep-22 14:33N 51°53' E 003°15'1211.9
2014-Sep-22 13:33N 51°50' E 002°57'1211.8
2014-Sep-22 12:33N 51°46' E 002°39'1311.9
2014-Sep-22 11:30N 51°37' E 002°26'1111.6
2014-Sep-22 10:33N 51°28' E 002°15'1111.3
2014-Sep-22 09:33N 51°18' E 002°07'1010.3
2014-Sep-22 08:34N 51°10' E 001°56'10 9.6
2014-Sep-22 07:34N 51°04' E 001°44'9 8.7
2014-Sep-22 06:33N 50°58' E 001°34'8 8.1
2014-Sep-22 05:33N 50°51' E 001°27'18 9.0
2014-Sep-22 03:33N 50°37' E 001°09'1010.3
2014-Sep-22 02:34N 50°31' E 000°56'1110.6
2014-Sep-22 01:34N 50°28' E 000°40'1110.5
2014-Sep-22 00:33N 50°25' E 000°24'36910.5
2014-Sep-20 13:33N 50°59' W 009°16'1211.6
2014-Sep-20 12:33N 51°07' W 009°30'1111.4
2014-Sep-20 11:33N 51°14' W 009°44'1110.8
2014-Sep-20 10:33N 51°20' W 009°58'1110.6
2014-Sep-20 09:33N 51°27' W 010°11'1210.4
2014-Sep-20 08:25N 51°35' W 010°26'2311.0
2014-Sep-20 06:19N 51°55' W 010°42'911.7
2014-Sep-20 05:33N 52°04' W 010°45'1211.3
2014-Sep-20 04:32N 52°13' W 010°32'1111.4
2014-Sep-20 03:33N 52°19' W 010°17'1211.6
2014-Sep-20 02:32N 52°26' W 010°02'1211.7
2014-Sep-20 01:31N 52°33' W 009°46'  
2014-Sep-15 03:32N 52°33' W 009°48'9 9.0
2014-Sep-15 02:33N 52°38' W 010°00'1211.9
2014-Sep-15 01:33N 52°49' W 010°05'1212.3
2014-Sep-15 00:33N 53°01' W 010°11'1212.4
2014-Sep-14 23:33N 53°13' W 010°16'1312.4
2014-Sep-14 22:32N 53°25' W 010°21'1212.1
2014-Sep-14 21:33N 53°37' W 010°26'1211.9
2014-Sep-14 20:33N 53°49' W 010°28'1212.3
2014-Sep-14 19:33N 54°01' W 010°26'1312.7
2014-Sep-14 18:33N 54°14' W 010°25'1212.3
2014-Sep-14 17:32N 54°25' W 010°16'1212.3
2014-Sep-14 16:33N 54°35' W 010°04'24812.3
2014-Sep-13 20:27N 58°06' W 006°07'1112.5
2014-Sep-13 19:33N 58°14' W 005°53'1813.1
2014-Sep-13 18:12N 58°27' W 005°31'913.5
2014-Sep-13 17:32N 58°33' W 005°17'1414.3
2014-Sep-13 16:33N 58°40' W 004°54'1414.4
2014-Sep-13 15:33N 58°41' W 004°26'1413.6
2014-Sep-13 14:33N 58°42' W 003°60'1312.8
2014-Sep-13 13:33N 58°43' W 003°35'1211.3
2014-Sep-13 12:30N 58°44' W 003°12'7 7.5
2014-Sep-13 11:33N 58°43' W 002°59'6412.3
2014-Sep-13 06:24N 58°36' W 000°58'  
Track history (hours):
 
Tides and Currents Weather Stations Pressure Air Temp Water Temp Dewpoint Dewpoint Depression Visibility Wind Speed Wind Dir Waves Ship Positions

Wilson Norfolk

Last reported at 2014-Sep-23 01:33 UTC. Time now 2014-Sep-23 02:20 UTC.
Position N 51°57' E 003°44'.

Length 123 m; draft 7.6 m.

Type: Cargo ship. MMSI: 248678000.

Date/timePositionNaut miles runAvg speedWind from/ knotsBaromVisibWave heightAir tempDewpointWater temp
2014-Sep-23 01:33N 51°57' E 003°44'2 1.6
2014-Sep-23 00:33N 51°56' E 003°43'0 0.1
2014-Sep-22 23:09N 51°56' E 003°43'0 0.0
2014-Sep-22 21:09N 51°56' E 003°43'0 0.0
2014-Sep-22 17:06N 51°56' E 003°43'0 0.1
2014-Sep-22 16:30N 51°56' E 003°43'7 6.6
2014-Sep-22 15:27N 51°56' E 003°32'1111.5
2014-Sep-22 14:33N 51°53' E 003°15'1211.9
2014-Sep-22 13:33N 51°50' E 002°57'1211.8
2014-Sep-22 12:33N 51°46' E 002°39'1311.9
2014-Sep-22 11:30N 51°37' E 002°26'1111.6
2014-Sep-22 10:33N 51°28' E 002°15'1111.3
2014-Sep-22 09:33N 51°18' E 002°07'1010.3
2014-Sep-22 08:34N 51°10' E 001°56'10 9.6
2014-Sep-22 07:34N 51°04' E 001°44'9 8.7
2014-Sep-22 06:33N 50°58' E 001°34'8 8.1
2014-Sep-22 05:33N 50°51' E 001°27'18 9.0
2014-Sep-22 03:33N 50°37' E 001°09'1010.3
2014-Sep-22 02:34N 50°31' E 000°56'1110.6
2014-Sep-22 01:34N 50°28' E 000°40'1110.5
2014-Sep-22 00:33N 50°25' E 000°24'36910.5
2014-Sep-20 13:33N 50°59' W 009°16'1211.6
2014-Sep-20 12:33N 51°07' W 009°30'1111.4
2014-Sep-20 11:33N 51°14' W 009°44'1110.8
2014-Sep-20 10:33N 51°20' W 009°58'1110.6
2014-Sep-20 09:33N 51°27' W 010°11'1210.4
2014-Sep-20 08:25N 51°35' W 010°26'2311.0
2014-Sep-20 06:19N 51°55' W 010°42'911.7
2014-Sep-20 05:33N 52°04' W 010°45'1211.3
2014-Sep-20 04:32N 52°13' W 010°32'1111.4
2014-Sep-20 03:33N 52°19' W 010°17'1211.6
2014-Sep-20 02:32N 52°26' W 010°02'1211.7
2014-Sep-20 01:31N 52°33' W 009°46'  
2014-Sep-15 03:32N 52°33' W 009°48'9 9.0
2014-Sep-15 02:33N 52°38' W 010°00'1211.9
2014-Sep-15 01:33N 52°49' W 010°05'1212.3
2014-Sep-15 00:33N 53°01' W 010°11'1212.4
2014-Sep-14 23:33N 53°13' W 010°16'1312.4
2014-Sep-14 22:32N 53°25' W 010°21'1212.1
2014-Sep-14 21:33N 53°37' W 010°26'1211.9
2014-Sep-14 20:33N 53°49' W 010°28'1212.3
2014-Sep-14 19:33N 54°01' W 010°26'1312.7
2014-Sep-14 18:33N 54°14' W 010°25'1212.3
2014-Sep-14 17:32N 54°25' W 010°16'1212.3
2014-Sep-14 16:33N 54°35' W 010°04'24812.3
2014-Sep-13 20:27N 58°06' W 006°07'1112.5
2014-Sep-13 19:33N 58°14' W 005°53'1813.1
2014-Sep-13 18:12N 58°27' W 005°31'913.5
2014-Sep-13 17:32N 58°33' W 005°17'1414.3
2014-Sep-13 16:33N 58°40' W 004°54'1414.4
2014-Sep-13 15:33N 58°41' W 004°26'1413.6
2014-Sep-13 14:33N 58°42' W 003°60'1312.8
2014-Sep-13 13:33N 58°43' W 003°35'1211.3
2014-Sep-13 12:30N 58°44' W 003°12'7 7.5
2014-Sep-13 11:33N 58°43' W 002°59'6412.3
2014-Sep-13 06:24N 58°36' W 000°58'  

Dump ship's entire track history